Michel Dsr — FLTE — position and weather

sailwx.info

Track history (hours):
 
Tides and Currents Weather Stations Pressure Air Temp Water Temp Dewpoint Dewpoint Depression Visibility Wind Speed Wind Dir Waves Ship Positions

Michel Dsr

Last reported at 2014-Nov-26 17:33 UTC. Time now 2014-Nov-27 01:37 UTC.
Position N 45°57' W 001°04'.

Length 80 m; draft 5.9 m.

Type: Dredging. MMSI: 228344700.

Date/timePositionNaut miles runAvg speedWind from/ knotsBaromVisibWave heightAir tempDewpointWater temp
2014-Nov-26 17:33N 45°57' W 001°04'1010.5
2014-Nov-26 16:33N 46°04' W 001°15'7 7.3
2014-Nov-26 15:33N 46°07' W 001°25'10 9.9
2014-Nov-26 14:33N 46°12' W 001°38'1010.2
2014-Nov-26 13:33N 46°19' W 001°48'1010.3
2014-Nov-26 12:33N 46°27' W 001°57'1010.3
2014-Nov-26 11:33N 46°36' W 002°06'1010.3
2014-Nov-26 10:32N 46°44' W 002°15'  
2014-Nov-21 15:33N 47°16' W 002°12'0 0.0
2014-Nov-21 07:23N 47°16' W 002°12'4 0.2
2014-Nov-20 07:28N 47°18' W 002°07'0 0.1
2014-Nov-20 06:33N 47°18' W 002°07'0 0.0
2014-Nov-20 05:32N 47°18' W 002°07'0 0.0
2014-Nov-20 04:32N 47°18' W 002°07'0 0.0
2014-Nov-20 03:32N 47°18' W 002°07'0 0.0
2014-Nov-20 02:25N 47°18' W 002°07'  
Track history (hours):
 
Tides and Currents Weather Stations Pressure Air Temp Water Temp Dewpoint Dewpoint Depression Visibility Wind Speed Wind Dir Waves Ship Positions

Michel Dsr

Last reported at 2014-Nov-26 17:33 UTC. Time now 2014-Nov-27 01:37 UTC.
Position N 45°57' W 001°04'.

Length 80 m; draft 5.9 m.

Type: Dredging. MMSI: 228344700.

Date/timePositionNaut miles runAvg speedWind from/ knotsBaromVisibWave heightAir tempDewpointWater temp
2014-Nov-26 17:33N 45°57' W 001°04'1010.5
2014-Nov-26 16:33N 46°04' W 001°15'7 7.3
2014-Nov-26 15:33N 46°07' W 001°25'10 9.9
2014-Nov-26 14:33N 46°12' W 001°38'1010.2
2014-Nov-26 13:33N 46°19' W 001°48'1010.3
2014-Nov-26 12:33N 46°27' W 001°57'1010.3
2014-Nov-26 11:33N 46°36' W 002°06'1010.3
2014-Nov-26 10:32N 46°44' W 002°15'  
2014-Nov-21 15:33N 47°16' W 002°12'0 0.0
2014-Nov-21 07:23N 47°16' W 002°12'4 0.2
2014-Nov-20 07:28N 47°18' W 002°07'0 0.1
2014-Nov-20 06:33N 47°18' W 002°07'0 0.0
2014-Nov-20 05:32N 47°18' W 002°07'0 0.0
2014-Nov-20 04:32N 47°18' W 002°07'0 0.0
2014-Nov-20 03:32N 47°18' W 002°07'0 0.0
2014-Nov-20 02:25N 47°18' W 002°07'  

Dump ship's entire track history